Indian Village, New York
Current Conditions -  °F | °C
As of 11:54 AM on Saturday 25 Oct 2014 (Local Time) from KSYR Reporting Station
Broken Clouds Broken Clouds  
Wind Chill: 62°   Ceiling: 5500
Heat Index: 62°   Visibility: 10mi
Dew Point: 47°   Wind: 13mph
Humidity: 58%   Direction: 230°SW
Pressure: 29.72"   Gusts: NA
Location:  42.9377°N, 76.1727°W
Report Text: KSYR 251554Z 23011KT 10SM FEW040 BKN055 17/08 A2972 RMK AO2 SLP060 T01670083
Loading
Personal Weather Stations






























Interactive Weather Map
Tropical Storm Tracking
New forecast layout! Learn more

10-Day Weather Forecast

Advertisements
Track Severe Weather on mobile